createdAt,value
2023-04-12T00:00:46.705Z,76.57
2023-04-12T00:03:13.141Z,77.16
2023-04-12T00:05:39.535Z,78.32
2023-04-12T00:08:06.191Z,78.45
2023-04-12T00:10:32.568Z,78.02
2023-04-12T00:12:58.923Z,77.16
2023-04-12T00:15:25.250Z,76.97
2023-04-12T00:17:51.675Z,76.47
2023-04-12T00:20:18.148Z,76.91
2023-04-12T00:22:45.009Z,76.86
2023-04-12T00:25:11.608Z,76.74
2023-04-12T00:27:38.989Z,76.70
2023-04-12T00:30:07.326Z,76.20
2023-04-12T00:32:33.753Z,75.73
2023-04-12T00:35:00.284Z,75.18
2023-04-12T00:37:26.656Z,74.43
2023-04-12T00:39:52.989Z,74.17
2023-04-12T00:42:19.306Z,74.20
2023-04-12T00:44:45.693Z,73.80
2023-04-12T00:47:12.096Z,73.27
2023-04-12T00:49:38.474Z,72.75
2023-04-12T00:52:14.469Z,72.61
2023-04-12T00:54:42.948Z,72.18
2023-04-12T00:57:09.857Z,72.19
2023-04-12T00:59:36.267Z,71.79
2023-04-12T01:02:03.134Z,71.85
2023-04-12T01:04:29.605Z,71.95
2023-04-12T01:07:19.020Z,71.57
2023-04-12T01:10:08.158Z,71.64
2023-04-12T01:12:57.431Z,71.67
2023-04-12T01:15:26.221Z,71.83
2023-04-12T01:18:09.838Z,70.73
2023-04-12T01:20:48.257Z,70.76
2023-04-12T01:23:41.294Z,70.95
2023-04-12T01:26:26.547Z,71.30
2023-04-12T01:28:54.607Z,73.06
2023-04-12T01:31:21.637Z,74.88
2023-04-12T01:33:50.414Z,74.78
2023-04-12T01:36:19.848Z,73.88
2023-04-12T01:38:46.831Z,73.21
2023-04-12T01:41:13.614Z,72.64
2023-04-12T01:43:42.886Z,72.07
2023-04-12T01:46:11.951Z,71.54
2023-04-12T01:48:39.263Z,70.79
2023-04-12T01:51:18.637Z,70.77
2023-04-12T01:54:03.864Z,70.44
2023-04-12T01:56:34.503Z,71.01
2023-04-12T01:59:02.150Z,71.55
2023-04-12T02:01:29.277Z,72.44
2023-04-12T02:03:59.134Z,72.13
2023-04-12T02:06:27.499Z,71.83
2023-04-12T02:08:59.835Z,72.43
2023-04-12T02:11:26.247Z,72.51
2023-04-12T02:13:52.664Z,73.17
2023-04-12T02:16:20.501Z,72.53
2023-04-12T02:18:47.479Z,72.10
2023-04-12T02:21:13.836Z,72.11
2023-04-12T02:23:41.745Z,71.99
2023-04-12T02:26:08.103Z,72.03
2023-04-12T02:28:34.636Z,71.51
2023-04-12T02:31:01.112Z,72.13
2023-04-12T02:33:30.809Z,72.69
2023-04-12T02:35:57.306Z,72.46
2023-04-12T02:38:23.849Z,72.23
2023-04-12T02:40:50.430Z,72.12
2023-04-12T02:43:16.792Z,72.40
2023-04-12T02:45:43.140Z,72.62
2023-04-12T02:48:09.609Z,72.77
2023-04-12T02:50:37.157Z,72.35
2023-04-12T02:53:03.503Z,72.52
2023-04-12T02:55:30.483Z,72.44
2023-04-12T02:57:57.274Z,72.89
2023-04-12T03:00:23.907Z,72.76
2023-04-12T03:02:53.479Z,72.82
2023-04-12T03:05:20.160Z,72.81
2023-04-12T03:07:46.512Z,72.55
2023-04-12T03:10:13.149Z,72.86
2023-04-12T03:12:39.589Z,72.84
2023-04-12T03:15:06.454Z,72.52
2023-04-12T03:17:32.814Z,72.33
2023-04-12T03:20:09.599Z,72.38
2023-04-12T03:22:37.178Z,72.37
2023-04-12T03:25:05.233Z,72.44
2023-04-12T03:27:31.753Z,72.04
2023-04-12T03:29:58.134Z,72.02
2023-04-12T03:32:24.937Z,71.80
2023-04-12T03:34:51.287Z,71.76
2023-04-12T03:37:18.060Z,71.80
2023-04-12T03:39:47.723Z,72.32
2023-04-12T03:42:29.378Z,72.11
2023-04-12T03:44:58.504Z,72.21
2023-04-12T03:47:24.891Z,71.91
2023-04-12T03:50:06.068Z,71.98
2023-04-12T03:52:37.308Z,71.73
2023-04-12T03:55:05.709Z,71.85
2023-04-12T03:57:32.033Z,71.61
2023-04-12T03:59:58.383Z,72.87
2023-04-12T04:02:25.477Z,72.71
2023-04-12T04:04:52.093Z,72.90
2023-04-12T04:07:18.463Z,74.28
2023-04-12T04:09:44.863Z,73.99
2023-04-12T04:12:11.196Z,73.67
2023-04-12T04:14:37.534Z,73.08
2023-04-12T04:17:03.878Z,73.11
2023-04-12T04:19:30.211Z,72.99
2023-04-12T04:21:56.707Z,72.86
2023-04-12T04:24:25.102Z,72.74
2023-04-12T04:26:54.128Z,73.78
2023-04-12T04:29:20.579Z,73.50
2023-04-12T04:31:47.162Z,73.33
2023-04-12T04:34:13.654Z,73.83
2023-04-12T04:36:41.475Z,74.05
2023-04-12T04:39:07.816Z,74.99
2023-04-12T04:41:41.292Z,74.86
2023-04-12T04:44:11.219Z,79.67
2023-04-12T04:46:38.130Z,80.88
2023-04-12T04:49:05.424Z,79.33
2023-04-12T04:51:32.450Z,78.64
2023-04-12T04:53:59.188Z,79.53
2023-04-12T04:56:26.106Z,78.68
2023-04-12T04:58:53.985Z,78.04
2023-04-12T05:01:25.638Z,79.91
2023-04-12T05:03:52.198Z,78.96
2023-04-12T05:06:18.608Z,78.13
2023-04-12T05:08:45.276Z,77.83
2023-04-12T05:11:11.591Z,78.03
2023-04-12T05:13:38.198Z,77.26
2023-04-12T05:16:08.138Z,76.80
2023-04-12T05:18:34.650Z,76.88
2023-04-12T05:21:05.299Z,79.08
2023-04-12T05:23:37.136Z,78.36
2023-04-12T05:26:04.241Z,78.83
2023-04-12T05:28:30.766Z,79.45
2023-04-12T05:30:57.368Z,79.23
2023-04-12T05:33:23.813Z,80.63
2023-04-12T05:35:50.273Z,79.82
2023-04-12T05:38:16.612Z,78.89
2023-04-12T05:40:44.029Z,78.78
2023-04-12T05:43:14.292Z,77.81
2023-04-12T05:45:41.755Z,77.78
2023-04-12T05:48:08.721Z,77.29
2023-04-12T05:50:35.709Z,76.92
2023-04-12T05:53:02.776Z,76.80
2023-04-12T05:55:29.884Z,76.55
2023-04-12T05:57:57.523Z,76.67
2023-04-12T06:00:24.176Z,76.68
2023-04-12T06:02:52.134Z,76.08
2023-04-12T06:05:18.628Z,76.39
2023-04-12T06:07:47.975Z,75.60
2023-04-12T06:10:18.352Z,75.20
2023-04-12T06:12:44.882Z,74.82
2023-04-12T06:15:11.438Z,74.61
2023-04-12T06:17:38.224Z,74.28
2023-04-12T06:20:09.525Z,74.16
2023-04-12T06:22:36.963Z,74.97
2023-04-12T06:25:03.809Z,75.21
2023-04-12T06:27:30.246Z,75.87
2023-04-12T06:29:57.115Z,77.55
2023-04-12T06:32:23.806Z,78.58
2023-04-12T06:34:50.363Z,79.88
2023-04-12T06:37:16.709Z,79.67
2023-04-12T06:39:43.101Z,80.29
2023-04-12T06:42:09.499Z,80.66
2023-04-12T06:44:35.982Z,81.50
2023-04-12T06:47:02.494Z,81.37
2023-04-12T06:49:28.940Z,80.34
2023-04-12T06:51:55.317Z,79.89
2023-04-12T06:54:21.718Z,79.87
2023-04-12T06:56:48.173Z,79.88
2023-04-12T06:59:14.586Z,80.16
2023-04-12T07:01:41.932Z,81.05
2023-04-12T07:04:10.967Z,81.21
2023-04-12T07:06:37.372Z,81.07
2023-04-12T07:09:04.008Z,81.22
2023-04-12T07:11:31.603Z,81.03
2023-04-12T07:13:59.095Z,81.25
2023-04-12T07:16:25.637Z,81.41
2023-04-12T07:18:52.013Z,81.71
2023-04-12T07:21:18.504Z,81.38
2023-04-12T07:23:46.421Z,81.24
2023-04-12T07:26:12.747Z,80.51
2023-04-12T07:28:39.410Z,79.87
2023-04-12T07:31:06.983Z,80.51
2023-04-12T07:33:34.765Z,80.38
2023-04-12T07:36:01.974Z,81.13
2023-04-12T07:38:28.445Z,81.52
2023-04-12T07:40:55.645Z,82.36
2023-04-12T07:43:22.601Z,82.11
2023-04-12T07:45:49.321Z,82.45
2023-04-12T07:48:16.001Z,82.22
2023-04-12T07:50:42.345Z,81.14
2023-04-12T07:53:26.572Z,80.77
2023-04-12T07:55:53.827Z,81.96
2023-04-12T07:58:22.020Z,81.75
2023-04-12T08:00:49.127Z,80.98
2023-04-12T08:03:17.293Z,80.58
2023-04-12T08:05:44.300Z,80.95
2023-04-12T08:08:11.586Z,79.26
2023-04-12T08:10:38.754Z,79.00
2023-04-12T08:13:06.588Z,78.21
2023-04-12T08:15:33.286Z,78.79
2023-04-12T08:17:59.712Z,78.95
2023-04-12T08:20:26.073Z,78.13
2023-04-12T08:22:52.725Z,78.11
2023-04-12T08:25:19.060Z,77.21
2023-04-12T08:27:45.901Z,77.50
2023-04-12T08:30:13.294Z,75.95
2023-04-12T08:32:39.673Z,74.92
2023-04-12T08:35:06.482Z,75.36
2023-04-12T08:37:33.325Z,74.54
2023-04-12T08:40:04.564Z,74.29
2023-04-12T08:42:31.814Z,74.64
2023-04-12T08:44:58.245Z,74.18
2023-04-12T08:47:24.677Z,74.82
2023-04-12T08:49:51.078Z,75.08
2023-04-12T08:52:17.500Z,73.70
2023-04-12T08:54:43.903Z,73.55
2023-04-12T08:57:10.730Z,74.19
2023-04-12T08:59:39.214Z,73.79
2023-04-12T09:02:05.878Z,72.94
2023-04-12T09:04:32.439Z,72.29
2023-04-12T09:06:58.927Z,72.11
2023-04-12T09:09:42.351Z,72.35
2023-04-12T09:12:09.386Z,72.23
2023-04-12T09:14:35.932Z,70.21
2023-04-12T09:17:02.365Z,70.65
2023-04-12T09:19:36.069Z,70.54
2023-04-12T09:22:02.691Z,69.92
2023-04-12T09:24:29.462Z,68.84
2023-04-12T09:27:07.304Z,68.69
2023-04-12T09:29:34.228Z,67.93
2023-04-12T09:32:09.105Z,68.06
2023-04-12T09:34:36.557Z,66.02
2023-04-12T09:37:16.655Z,66.00
2023-04-12T09:39:43.236Z,63.95
2023-04-12T09:42:29.275Z,63.81
2023-04-12T09:44:58.437Z,63.42
2023-04-12T09:47:40.885Z,61.95
2023-04-12T09:50:09.450Z,62.01
2023-04-12T09:52:38.161Z,62.44
2023-04-12T09:55:11.231Z,60.74
2023-04-12T09:57:42.408Z,60.60
2023-04-12T10:00:20.085Z,60.44
2023-04-12T10:02:50.984Z,60.69
2023-04-12T10:05:20.348Z,59.54
2023-04-12T10:07:47.543Z,59.12
2023-04-12T10:10:16.514Z,59.42
2023-04-12T10:12:45.632Z,60.03
2023-04-12T10:15:13.597Z,59.34
2023-04-12T10:17:58.288Z,60.93
2023-04-12T10:20:28.168Z,61.21
2023-04-12T10:22:56.289Z,60.68
2023-04-12T10:25:25.047Z,61.84
2023-04-12T10:27:51.651Z,64.21
2023-04-12T10:30:27.083Z,65.03
2023-04-12T10:33:02.496Z,64.65
2023-04-12T10:35:30.372Z,63.49
2023-04-12T10:38:01.110Z,63.20
2023-04-12T10:40:28.646Z,61.06
2023-04-12T10:43:23.096Z,58.74
2023-04-12T10:45:50.372Z,59.02
2023-04-12T10:48:32.416Z,59.54
2023-04-12T10:51:28.526Z,60.02
2023-04-12T10:54:17.625Z,61.00
2023-04-12T10:56:45.998Z,61.68
2023-04-12T10:59:16.374Z,62.11
2023-04-12T11:02:08.857Z,63.24
2023-04-12T11:04:36.063Z,63.48
2023-04-12T11:07:11.416Z,64.81
2023-04-12T11:09:42.933Z,65.75
2023-04-12T11:12:16.555Z,68.21
2023-04-12T11:14:48.936Z,68.18
2023-04-12T11:17:15.771Z,68.24
2023-04-12T11:19:53.576Z,68.40
2023-04-12T11:22:23.739Z,68.05
2023-04-12T11:24:52.427Z,68.58
2023-04-12T11:27:20.744Z,67.95
2023-04-12T11:29:53.593Z,68.30
2023-04-12T11:32:21.529Z,67.42
2023-04-12T11:34:48.022Z,67.32
2023-04-12T11:37:15.052Z,66.50
2023-04-12T11:39:43.661Z,65.77
2023-04-12T11:42:18.466Z,66.13
2023-04-12T11:47:17.030Z,65.55
2023-04-12T11:49:57.477Z,64.90
2023-04-12T11:52:31.909Z,64.68
2023-04-12T11:55:04.938Z,64.72
2023-04-12T11:57:31.337Z,64.18
2023-04-12T12:00:01.200Z,63.75
2023-04-12T12:02:33.073Z,63.01
2023-04-12T12:05:03.515Z,66.21
2023-04-12T12:07:30.734Z,67.30
2023-04-12T12:09:57.715Z,67.33
2023-04-12T12:12:24.123Z,66.83
2023-04-12T12:14:50.895Z,66.12
2023-04-12T12:17:17.442Z,65.13
2023-04-12T12:19:45.928Z,66.10
2023-04-12T12:22:22.108Z,68.01
2023-04-12T12:24:59.257Z,68.72
2023-04-12T12:27:35.165Z,68.39
2023-04-12T12:30:04.216Z,68.59
2023-04-12T12:32:35.035Z,68.99
2023-04-12T12:35:01.696Z,68.75
2023-04-12T12:37:30.182Z,68.65
2023-04-12T12:40:15.348Z,69.26
2023-04-12T12:42:50.603Z,68.92
2023-04-12T12:45:18.613Z,69.65
2023-04-12T12:48:02.496Z,68.50
2023-04-12T12:50:31.451Z,69.74
2023-04-12T12:53:00.496Z,70.00
2023-04-12T12:55:27.945Z,69.14
2023-04-12T12:58:07.501Z,67.92
2023-04-12T13:00:34.930Z,67.29
2023-04-12T13:03:01.783Z,67.71
2023-04-12T13:05:28.562Z,67.89
2023-04-12T13:07:54.901Z,67.54
2023-04-12T13:10:21.458Z,66.51
2023-04-12T13:12:48.077Z,67.41
2023-04-12T13:17:43.906Z,66.75
2023-04-12T13:20:10.594Z,66.66
2023-04-12T13:22:36.932Z,65.52
2023-04-12T13:25:04.063Z,65.49
2023-04-12T13:27:30.397Z,63.88
2023-04-12T13:29:56.816Z,62.49
2023-04-12T13:32:23.220Z,62.36
2023-04-12T13:34:49.695Z,62.31
2023-04-12T13:37:16.196Z,61.18
2023-04-12T13:39:44.525Z,62.20
2023-04-12T13:42:10.904Z,62.45
2023-04-12T13:44:37.264Z,62.52
2023-04-12T13:47:03.862Z,62.96
2023-04-12T13:49:30.203Z,62.71
2023-04-12T13:51:56.671Z,63.13
2023-04-12T13:54:23.279Z,64.74
2023-04-12T13:56:49.583Z,62.07
2023-04-12T13:59:15.981Z,62.26
2023-04-12T14:01:42.546Z,61.88
2023-04-12T14:04:09.204Z,62.51
2023-04-12T14:06:36.416Z,63.38
2023-04-12T14:09:02.765Z,62.60
2023-04-12T14:11:29.106Z,63.38
2023-04-12T14:13:55.617Z,63.72
2023-04-12T14:16:22.006Z,63.29
2023-04-12T14:18:48.321Z,64.36
2023-04-12T14:21:14.657Z,64.83
2023-04-12T14:23:41.509Z,64.48
2023-04-12T14:26:07.833Z,63.53
2023-04-12T14:28:35.364Z,63.15
2023-04-12T14:31:03.573Z,63.89
2023-04-12T14:33:31.341Z,64.20
2023-04-12T14:35:58.045Z,64.16
2023-04-12T14:38:24.391Z,64.59
2023-04-12T14:40:51.605Z,64.90
2023-04-12T14:43:18.025Z,64.27
2023-04-12T14:45:44.346Z,64.01
2023-04-12T14:48:10.935Z,65.12
2023-04-12T14:50:37.303Z,64.97
2023-04-12T14:53:03.713Z,65.92
2023-04-12T14:55:30.411Z,66.52
2023-04-12T14:57:56.718Z,66.54
2023-04-12T15:00:23.256Z,67.67
2023-04-12T15:02:49.867Z,67.23
2023-04-12T15:05:16.434Z,67.02
2023-04-12T15:07:42.884Z,66.75
2023-04-12T15:10:09.730Z,66.03
2023-04-12T15:12:37.197Z,67.75
2023-04-12T15:15:06.221Z,68.85
2023-04-12T15:17:34.065Z,68.26
2023-04-12T15:20:08.348Z,69.24
2023-04-12T15:22:39.192Z,67.95
2023-04-12T15:25:06.624Z,67.53
2023-04-12T15:27:33.108Z,67.73
2023-04-12T15:30:00.555Z,67.61
2023-04-12T15:32:27.735Z,68.67
2023-04-12T15:34:58.139Z,70.11
2023-04-12T15:37:25.491Z,70.63
2023-04-12T15:39:52.396Z,71.09
2023-04-12T15:42:19.212Z,70.61
2023-04-12T15:44:45.870Z,68.60
2023-04-12T15:47:12.529Z,68.19
2023-04-12T15:49:39.743Z,67.39
2023-04-12T15:52:06.395Z,66.91
2023-04-12T15:54:32.724Z,67.04
2023-04-12T15:57:02.525Z,66.62
2023-04-12T15:59:29.974Z,66.28
2023-04-12T16:01:58.581Z,67.22
2023-04-12T16:04:26.850Z,68.05
2023-04-12T16:06:53.224Z,68.78
2023-04-12T16:09:22.211Z,69.33
2023-04-12T16:11:48.758Z,69.64
2023-04-12T16:14:15.493Z,71.58
2023-04-12T16:16:41.982Z,71.78
2023-04-12T16:19:08.458Z,71.26
2023-04-12T16:21:35.866Z,72.04
2023-04-12T16:24:02.191Z,73.70
2023-04-12T16:26:29.591Z,74.16
2023-04-12T16:28:57.328Z,75.10
2023-04-12T16:31:25.024Z,75.38
2023-04-12T16:33:51.659Z,75.58
2023-04-12T16:36:18.470Z,74.76
2023-04-12T16:38:49.328Z,75.24
2023-04-12T16:41:17.217Z,76.37
2023-04-12T16:43:45.395Z,77.07
2023-04-12T16:46:12.072Z,77.66
2023-04-12T16:48:42.047Z,77.36
2023-04-12T16:51:08.738Z,78.08
2023-04-12T16:53:36.545Z,77.58
2023-04-12T16:56:02.930Z,78.02
2023-04-12T16:58:29.328Z,77.68
2023-04-12T17:00:56.881Z,77.01
2023-04-12T17:03:24.138Z,78.17
2023-04-12T17:05:50.796Z,77.63
2023-04-12T17:08:17.447Z,77.56
2023-04-12T17:10:43.913Z,77.58
2023-04-12T17:13:10.287Z,76.63
2023-04-12T17:15:36.618Z,76.51
2023-04-12T17:18:10.948Z,75.76
2023-04-12T17:20:38.117Z,75.88
2023-04-12T17:23:05.112Z,75.11
2023-04-12T17:25:32.102Z,75.46
2023-04-12T17:28:02.962Z,74.56
2023-04-12T17:30:29.795Z,74.14
2023-04-12T17:32:56.417Z,73.17
2023-04-12T17:35:22.886Z,73.88
2023-04-12T17:37:49.337Z,74.38
2023-04-12T17:40:16.070Z,74.04
2023-04-12T17:42:43.584Z,74.46
2023-04-12T17:45:12.413Z,75.17
2023-04-12T17:47:39.674Z,75.28
2023-04-12T17:50:08.238Z,74.57
2023-04-12T17:52:34.640Z,75.32
2023-04-12T17:55:01.176Z,76.83
2023-04-12T17:57:27.641Z,80.52
2023-04-12T17:59:54.030Z,80.31
2023-04-12T18:02:20.705Z,79.81
2023-04-12T18:04:48.204Z,81.63
2023-04-12T18:07:16.407Z,79.68
2023-04-12T18:09:44.561Z,79.82
2023-04-12T18:12:12.214Z,80.24
2023-04-12T18:14:40.407Z,80.94
2023-04-12T18:17:07.281Z,79.58
2023-04-12T18:19:33.922Z,78.98
2023-04-12T18:22:00.375Z,79.79
2023-04-12T18:24:26.956Z,79.55
2023-04-12T18:26:53.471Z,79.33
2023-04-12T18:29:19.984Z,78.97
2023-04-12T18:31:46.523Z,78.05
2023-04-12T18:34:13.906Z,77.34
2023-04-12T18:36:42.152Z,77.35
2023-04-12T18:39:08.842Z,78.08
2023-04-12T18:41:35.750Z,79.37
2023-04-12T18:44:02.742Z,79.91
2023-04-12T18:46:29.594Z,79.58
2023-04-12T18:48:56.241Z,79.43
2023-04-12T18:51:23.204Z,78.07
2023-04-12T18:53:50.496Z,77.47
2023-04-12T18:56:22.892Z,79.65
2023-04-12T18:58:55.728Z,78.41
2023-04-12T19:01:23.401Z,78.80
2023-04-12T19:03:50.105Z,78.43
2023-04-12T19:06:16.972Z,77.55
2023-04-12T19:08:43.433Z,77.45
2023-04-12T19:11:09.986Z,77.92
2023-04-12T19:13:37.160Z,77.43
2023-04-12T19:16:07.307Z,78.80
2023-04-12T19:18:34.272Z,78.38
2023-04-12T19:21:01.024Z,78.47
2023-04-12T19:23:27.433Z,79.05
2023-04-12T19:25:54.419Z,78.13
2023-04-12T19:28:20.971Z,78.74
2023-04-12T19:30:47.309Z,79.83
2023-04-12T19:33:13.651Z,78.62
2023-04-12T19:35:40.573Z,79.88
2023-04-12T19:38:08.254Z,80.71
2023-04-12T19:40:34.748Z,81.40
2023-04-12T19:43:01.139Z,81.94
2023-04-12T19:45:28.683Z,80.82
2023-04-12T19:47:55.862Z,80.53
2023-04-12T19:50:22.957Z,79.94
2023-04-12T19:52:49.362Z,79.62
2023-04-12T19:55:16.261Z,79.68
2023-04-12T19:57:43.020Z,79.29
2023-04-12T20:00:20.544Z,79.70
2023-04-12T20:02:48.844Z,80.48
2023-04-12T20:05:17.891Z,80.81
2023-04-12T20:07:45.119Z,80.29
2023-04-12T20:10:13.428Z,80.34
2023-04-12T20:12:39.894Z,80.36
2023-04-12T20:15:11.596Z,80.61
2023-04-12T20:17:42.647Z,80.20
2023-04-12T20:20:17.167Z,80.20
2023-04-12T20:22:46.029Z,80.50
2023-04-12T20:25:13.032Z,80.21
2023-04-12T20:27:39.402Z,79.92
2023-04-12T20:30:07.101Z,80.53
2023-04-12T20:32:35.618Z,81.19
2023-04-12T20:35:05.490Z,81.72
2023-04-12T20:37:32.562Z,82.80
2023-04-12T20:39:59.412Z,83.26
2023-04-12T20:42:26.251Z,84.48
2023-04-12T20:44:53.145Z,85.22
2023-04-12T20:47:19.690Z,85.34
2023-04-12T20:49:46.148Z,85.64
2023-04-12T20:52:16.596Z,85.77
2023-04-12T20:54:42.973Z,85.92
2023-04-12T20:57:10.573Z,85.52
2023-04-12T20:59:38.552Z,85.62
2023-04-12T21:02:05.084Z,85.22
2023-04-12T21:04:35.837Z,82.81
2023-04-12T21:07:02.735Z,79.76
2023-04-12T21:09:30.044Z,80.11
2023-04-12T21:11:57.796Z,80.62
2023-04-12T21:14:24.251Z,80.10
2023-04-12T21:16:50.634Z,80.58
2023-04-12T21:19:18.280Z,79.82
2023-04-12T21:21:45.988Z,80.07
2023-04-12T21:24:13.060Z,78.73
2023-04-12T21:26:40.115Z,78.12
2023-04-12T21:29:06.455Z,78.11
2023-04-12T21:31:32.900Z,77.55
2023-04-12T21:33:59.690Z,78.36
2023-04-12T21:36:30.203Z,76.92
2023-04-12T21:38:58.642Z,76.78
2023-04-12T21:41:25.159Z,76.19
2023-04-12T21:43:52.126Z,76.64
2023-04-12T21:46:18.739Z,75.79
2023-04-12T21:48:45.152Z,75.50
2023-04-12T21:51:11.494Z,74.68
2023-04-12T21:53:38.004Z,73.39
2023-04-12T21:56:04.802Z,74.12
2023-04-12T21:58:33.065Z,73.92
2023-04-12T22:00:59.702Z,73.23
2023-04-12T22:03:26.169Z,73.55
2023-04-12T22:06:03.719Z,73.35
2023-04-12T22:08:32.600Z,73.67
2023-04-12T22:11:00.099Z,73.71
2023-04-12T22:13:26.735Z,73.95
2023-04-12T22:15:53.069Z,74.03
2023-04-12T22:18:19.654Z,73.83
2023-04-12T22:20:46.038Z,74.09
2023-04-12T22:23:13.724Z,74.12
2023-04-12T22:25:40.087Z,73.50
2023-04-12T22:28:06.524Z,72.93
2023-04-12T22:30:32.970Z,72.49
2023-04-12T22:32:59.881Z,73.08
2023-04-12T22:35:26.968Z,72.72
2023-04-12T22:37:53.356Z,73.00
2023-04-12T22:40:19.963Z,72.51
2023-04-12T22:42:48.121Z,72.93
2023-04-12T22:45:16.180Z,73.05
2023-04-12T22:47:43.808Z,72.52
2023-04-12T22:50:12.491Z,71.78
2023-04-12T22:52:39.681Z,72.07
2023-04-12T22:55:08.291Z,72.07
2023-04-12T22:57:36.329Z,72.23
2023-04-12T23:00:05.694Z,72.22
2023-04-12T23:02:33.297Z,73.11
2023-04-12T23:05:00.432Z,72.68
2023-04-12T23:07:29.688Z,72.35
2023-04-12T23:09:56.798Z,72.39
2023-04-12T23:12:23.806Z,72.83
2023-04-12T23:14:50.842Z,72.88
2023-04-12T23:17:19.434Z,73.44
2023-04-12T23:19:45.817Z,72.46
2023-04-12T23:22:21.595Z,71.91
2023-04-12T23:24:50.891Z,72.19
2023-04-12T23:27:18.192Z,72.05
2023-04-12T23:29:44.520Z,72.21
2023-04-12T23:32:12.015Z,72.61
2023-04-12T23:34:38.348Z,72.61
2023-04-12T23:37:04.684Z,73.00
2023-04-12T23:39:31.264Z,72.50
2023-04-12T23:41:57.580Z,72.68
2023-04-12T23:44:25.038Z,73.09
2023-04-12T23:46:51.490Z,73.25
2023-04-12T23:49:17.904Z,73.48
2023-04-12T23:51:44.349Z,74.02
2023-04-12T23:54:11.072Z,73.70
2023-04-12T23:56:37.421Z,73.83
2023-04-12T23:59:03.803Z,73.92
